createdAt,value
2023-02-22T00:00:50.054Z,96542.41
2023-02-22T00:03:25.032Z,96538.00
2023-02-22T00:05:55.325Z,96534.13
2023-02-22T00:08:30.404Z,96529.59
2023-02-22T00:10:58.726Z,96537.69
2023-02-22T00:13:29.603Z,96532.97
2023-02-22T00:15:58.548Z,96535.47
2023-02-22T00:18:28.029Z,96527.88
2023-02-22T00:20:59.117Z,96521.50
2023-02-22T00:23:29.684Z,96526.63
2023-02-22T00:25:59.361Z,96527.22
2023-02-22T00:28:30.695Z,96522.00
2023-02-22T00:30:59.766Z,96525.75
2023-02-22T00:33:27.688Z,96526.22
2023-02-22T00:35:55.590Z,96524.41
2023-02-22T00:38:23.579Z,96519.94
2023-02-22T00:40:51.845Z,96520.97
2023-02-22T00:43:19.683Z,96517.59
2023-02-22T00:45:50.265Z,96519.78
2023-02-22T00:48:19.570Z,96518.59
2023-02-22T00:50:49.117Z,96513.53
2023-02-22T00:53:17.575Z,96515.56
2023-02-22T00:55:45.455Z,96517.25
2023-02-22T00:58:13.613Z,96509.41
2023-02-22T01:00:43.750Z,96508.81
2023-02-22T01:03:15.740Z,96510.72
2023-02-22T01:05:43.988Z,96520.44
2023-02-22T01:08:14.607Z,96525.03
2023-02-22T01:10:42.443Z,96523.69
2023-02-22T01:13:12.573Z,96503.53
2023-02-22T01:15:42.406Z,96507.75
2023-02-22T01:18:11.690Z,96503.66
2023-02-22T01:20:41.106Z,96508.25
2023-02-22T01:23:10.610Z,96506.50
2023-02-22T01:25:38.719Z,96496.78
2023-02-22T01:28:08.151Z,96486.25
2023-02-22T01:30:37.500Z,96486.25
2023-02-22T01:33:08.027Z,96477.53
2023-02-22T01:35:38.502Z,96486.84
2023-02-22T01:38:09.596Z,96477.94
2023-02-22T01:40:41.857Z,96474.06
2023-02-22T01:43:18.333Z,96476.59
2023-02-22T01:45:52.720Z,96473.41
2023-02-22T01:48:26.084Z,96470.88
2023-02-22T01:50:58.380Z,96466.66
2023-02-22T01:53:32.816Z,96462.44
2023-02-22T01:56:01.777Z,96455.75
2023-02-22T01:58:34.150Z,96453.25
2023-02-22T02:01:02.283Z,96450.53
2023-02-22T02:03:34.396Z,96454.00
2023-02-22T02:06:05.973Z,96442.94
2023-02-22T02:08:42.382Z,96445.56
2023-02-22T02:11:10.953Z,96444.97
2023-02-22T02:13:39.477Z,96436.28
2023-02-22T02:16:08.268Z,96433.69
2023-02-22T02:18:36.621Z,96438.72
2023-02-22T02:21:44.998Z,96436.28
2023-02-22T02:24:40.242Z,96434.75
2023-02-22T02:27:18.915Z,96431.06
2023-02-22T02:30:31.588Z,96428.69
2023-02-22T02:33:06.458Z,96425.84
2023-02-22T02:35:46.319Z,96429.53
2023-02-22T02:38:27.034Z,96423.31
2023-02-22T02:41:05.462Z,96418.94
2023-02-22T02:43:39.969Z,96417.25
2023-02-22T02:46:13.360Z,96416.66
2023-02-22T02:48:50.437Z,96407.28
2023-02-22T02:51:20.816Z,96411.66
2023-02-22T02:53:51.387Z,96407.13
2023-02-22T02:56:19.468Z,96403.66
2023-02-22T02:58:51.163Z,96403.75
2023-02-22T03:01:29.210Z,96403.13
2023-02-22T03:04:14.026Z,96401.41
2023-02-22T03:07:08.744Z,96397.00
2023-02-22T03:09:50.033Z,96387.34
2023-02-22T03:12:29.089Z,96391.72
2023-02-22T03:15:09.408Z,96390.09
2023-02-22T03:17:48.721Z,96386.63
2023-02-22T03:20:31.566Z,96386.56
2023-02-22T03:23:09.719Z,96382.19
2023-02-22T03:25:44.469Z,96382.34
2023-02-22T03:28:18.610Z,96374.53
2023-02-22T03:30:51.814Z,96374.41
2023-02-22T03:33:28.733Z,96374.28
2023-02-22T03:36:02.832Z,96368.69
2023-02-22T03:38:34.786Z,96372.06
2023-02-22T03:41:05.783Z,96370.16
2023-02-22T03:43:39.333Z,96368.69
2023-02-22T03:46:14.477Z,96368.22
2023-02-22T03:48:49.794Z,96365.44
2023-02-22T03:51:19.939Z,96367.19
2023-02-22T03:53:52.501Z,96373.25
2023-02-22T03:56:27.302Z,96369.72
2023-02-22T03:58:56.289Z,96368.94
2023-02-22T04:01:24.288Z,96371.66
2023-02-22T04:03:53.146Z,96373.59
2023-02-22T04:06:23.368Z,96367.78
2023-02-22T04:08:51.434Z,96368.78
2023-02-22T04:11:19.357Z,96372.06
2023-02-22T04:13:47.437Z,96369.44
2023-02-22T04:16:15.470Z,96369.53
2023-02-22T04:18:43.427Z,96365.16
2023-02-22T04:21:12.520Z,96358.84
2023-02-22T04:23:45.880Z,96357.91
2023-02-22T04:26:14.682Z,96359.63
2023-02-22T04:28:44.319Z,96360.69
2023-02-22T04:31:17.154Z,96360.59
2023-02-22T04:33:45.670Z,96359.91
2023-02-22T04:36:17.249Z,96361.94
2023-02-22T04:38:47.705Z,96358.41
2023-02-22T04:41:16.024Z,96353.19
2023-02-22T04:43:44.132Z,96363.09
2023-02-22T04:46:17.717Z,96358.97
2023-02-22T04:48:46.098Z,96353.31
2023-02-22T04:51:15.619Z,96357.00
2023-02-22T04:53:56.412Z,96359.44
2023-02-22T04:56:26.023Z,96354.53
2023-02-22T04:58:53.874Z,96347.66
2023-02-22T05:01:23.521Z,96345.97
2023-02-22T05:03:51.450Z,96356.56
2023-02-22T05:06:19.665Z,96352.28
2023-02-22T05:08:48.032Z,96348.06
2023-02-22T05:11:17.563Z,96350.75
2023-02-22T05:13:45.742Z,96347.06
2023-02-22T05:16:14.107Z,96349.25
2023-02-22T05:18:42.159Z,96344.56
2023-02-22T05:21:10.514Z,96343.56
2023-02-22T05:23:38.373Z,96340.34
2023-02-22T05:26:06.744Z,96338.81
2023-02-22T05:28:35.954Z,96337.38
2023-02-22T05:31:03.862Z,96331.16
2023-02-22T05:33:31.723Z,96335.38
2023-02-22T05:35:59.602Z,96336.44
2023-02-22T05:38:27.467Z,96330.63
2023-02-22T05:40:55.295Z,96328.19
2023-02-22T05:43:23.219Z,96329.03
2023-02-22T05:45:52.365Z,96337.63
2023-02-22T05:48:22.533Z,96330.63
2023-02-22T05:50:50.593Z,96330.88
2023-02-22T05:53:18.445Z,96325.13
2023-02-22T05:55:46.667Z,96324.22
2023-02-22T05:58:15.096Z,96326.19
2023-02-22T06:00:43.223Z,96321.75
2023-02-22T06:03:13.656Z,96326.84
2023-02-22T06:05:42.675Z,96318.06
2023-02-22T06:08:10.703Z,96319.91
2023-02-22T06:10:38.589Z,96320.69
2023-02-22T06:13:07.117Z,96322.53
2023-02-22T06:15:35.265Z,96323.47
2023-02-22T06:18:03.343Z,96326.06
2023-02-22T06:20:33.429Z,96325.91
2023-02-22T06:23:01.304Z,96326.13
2023-02-22T06:25:32.181Z,96321.75
2023-02-22T06:28:00.972Z,96317.63
2023-02-22T06:30:30.357Z,96329.50
2023-02-22T06:32:58.243Z,96336.41
2023-02-22T06:35:26.089Z,96327.66
2023-02-22T06:37:55.416Z,96338.16
2023-02-22T06:40:23.369Z,96331.88
2023-02-22T06:42:51.245Z,96342.97
2023-02-22T06:45:19.660Z,96336.78
2023-02-22T06:47:48.994Z,96339.41
2023-02-22T06:50:23.937Z,96341.91
2023-02-22T06:52:52.637Z,96348.59
2023-02-22T06:55:24.247Z,96351.78
2023-02-22T06:57:52.776Z,96347.34
2023-02-22T07:00:23.365Z,96348.84
2023-02-22T07:02:51.911Z,96356.34
2023-02-22T07:05:22.218Z,96354.50
2023-02-22T07:07:52.622Z,96356.88
2023-02-22T07:10:25.175Z,96359.06
2023-02-22T07:12:53.455Z,96355.38
2023-02-22T07:15:23.567Z,96345.59
2023-02-22T07:17:51.686Z,96355.78
2023-02-22T07:20:21.143Z,96357.16
2023-02-22T07:22:49.398Z,96355.75
2023-02-22T07:25:17.620Z,96357.09
2023-02-22T07:27:47.985Z,96361.97
2023-02-22T07:30:20.662Z,96358.19
2023-02-22T07:32:49.097Z,96359.59
2023-02-22T07:35:18.915Z,96353.03
2023-02-22T07:37:48.143Z,96362.13
2023-02-22T07:40:17.700Z,96345.25
2023-02-22T07:42:55.470Z,96351.81
2023-02-22T07:45:27.080Z,96348.75
2023-02-22T07:47:55.206Z,96352.81
2023-02-22T07:50:24.816Z,96350.69
2023-02-22T07:52:56.727Z,96353.00
2023-02-22T07:55:27.887Z,96356.13
2023-02-22T07:57:59.844Z,96355.78
2023-02-22T08:00:29.819Z,96358.78
2023-02-22T08:02:58.829Z,96353.88
2023-02-22T08:05:28.114Z,96351.63
2023-02-22T08:07:56.366Z,96346.88
2023-02-22T08:10:26.160Z,96352.66
2023-02-22T08:12:55.840Z,96354.66
2023-02-22T08:15:28.493Z,96355.97
2023-02-22T08:17:56.551Z,96357.28
2023-02-22T08:20:24.566Z,96353.22
2023-02-22T08:22:53.113Z,96360.66
2023-02-22T08:25:22.579Z,96348.03
2023-02-22T08:27:50.416Z,96351.00
2023-02-22T08:30:20.807Z,96346.31
2023-02-22T08:32:51.157Z,96349.19
2023-02-22T08:35:20.670Z,96348.72
2023-02-22T08:37:50.651Z,96348.13
2023-02-22T08:40:21.289Z,96351.03
2023-02-22T08:42:49.308Z,96349.78
2023-02-22T08:45:17.614Z,96344.91
2023-02-22T08:47:45.725Z,96350.38
2023-02-22T08:50:20.107Z,96351.53
2023-02-22T08:52:48.026Z,96346.00
2023-02-22T08:55:16.042Z,96350.03
2023-02-22T08:57:43.886Z,96348.56
2023-02-22T09:00:13.222Z,96349.53
2023-02-22T09:02:41.598Z,96346.25
2023-02-22T09:05:09.934Z,96342.56
2023-02-22T09:07:42.944Z,96345.84
2023-02-22T09:10:15.477Z,96336.50
2023-02-22T09:12:43.745Z,96336.72
2023-02-22T09:15:13.163Z,96336.19
2023-02-22T09:17:41.081Z,96342.81
2023-02-22T09:20:12.283Z,96344.91
2023-02-22T09:22:41.741Z,96341.75
2023-02-22T09:25:16.731Z,96338.59
2023-02-22T09:27:45.169Z,96332.59
2023-02-22T09:30:18.366Z,96329.53
2023-02-22T09:32:46.466Z,96334.25
2023-02-22T09:35:14.453Z,96340.66
2023-02-22T09:37:45.031Z,96332.81
2023-02-22T09:40:24.821Z,96322.59
2023-02-22T09:43:08.341Z,96315.81
2023-02-22T09:45:44.972Z,96326.19
2023-02-22T09:48:21.991Z,96314.63
2023-02-22T09:50:52.739Z,96323.06
2023-02-22T09:53:29.989Z,96316.38
2023-02-22T09:56:01.792Z,96311.75
2023-02-22T09:58:33.670Z,96301.88
2023-02-22T10:01:14.730Z,96304.03
2023-02-22T10:03:51.266Z,96303.69
2023-02-22T10:06:23.648Z,96309.09
2023-02-22T10:08:56.881Z,96302.50
2023-02-22T10:11:45.957Z,96305.09
2023-02-22T10:14:43.792Z,96300.66
2023-02-22T10:17:22.553Z,96301.75
2023-02-22T10:20:01.492Z,96296.97
2023-02-22T10:22:43.822Z,96299.72
2023-02-22T10:25:18.176Z,96303.28
2023-02-22T10:27:49.922Z,96300.75
2023-02-22T10:30:25.460Z,96297.84
2023-02-22T10:33:02.252Z,96295.91
2023-02-22T10:35:34.019Z,96300.72
2023-02-22T10:38:14.967Z,96294.47
2023-02-22T10:40:47.225Z,96293.00
2023-02-22T10:43:15.245Z,96290.81
2023-02-22T10:45:43.552Z,96286.84
2023-02-22T10:48:15.712Z,96274.72
2023-02-22T10:50:45.853Z,96284.03
2023-02-22T10:53:15.753Z,96281.09
2023-02-22T10:56:19.177Z,96278.94
2023-02-22T10:58:51.189Z,96280.22
2023-02-22T11:01:26.183Z,96286.78
2023-02-22T11:03:59.731Z,96272.63
2023-02-22T11:06:28.368Z,96275.88
2023-02-22T11:09:06.586Z,96274.81
2023-02-22T11:11:35.863Z,96270.69
2023-02-22T11:14:06.677Z,96267.38
2023-02-22T11:16:38.290Z,96263.06
2023-02-22T11:19:18.079Z,96266.75
2023-02-22T11:21:46.429Z,96258.72
2023-02-22T11:26:49.146Z,96248.91
2023-02-22T11:29:23.209Z,96244.31
2023-02-22T11:31:51.775Z,96252.09
2023-02-22T11:34:33.461Z,96240.28
2023-02-22T11:37:22.256Z,96236.66
2023-02-22T11:40:04.854Z,96233.06
2023-02-22T11:42:34.239Z,96238.91
2023-02-22T11:45:13.960Z,96238.66
2023-02-22T11:47:53.641Z,96228.22
2023-02-22T11:50:30.896Z,96224.06
2023-02-22T11:53:27.811Z,96226.44
2023-02-22T11:56:16.096Z,96221.88
2023-02-22T11:58:49.636Z,96214.38
2023-02-22T12:01:28.146Z,96209.81
2023-02-22T12:04:37.969Z,96210.66
2023-02-22T12:07:27.290Z,96199.38
2023-02-22T12:10:06.379Z,96201.47
2023-02-22T12:12:45.035Z,96201.34
2023-02-22T12:15:24.016Z,96194.25
2023-02-22T12:18:00.554Z,96198.56
2023-02-22T12:20:33.044Z,96203.84
2023-02-22T12:23:07.175Z,96194.66
2023-02-22T12:25:38.862Z,96193.25
2023-02-22T12:28:24.242Z,96193.94
2023-02-22T12:31:05.545Z,96188.53
2023-02-22T12:33:50.434Z,96185.19
2023-02-22T12:36:21.856Z,96193.41
2023-02-22T12:38:55.441Z,96181.28
2023-02-22T12:41:32.261Z,96186.44
2023-02-22T12:44:05.709Z,96190.19
2023-02-22T12:46:40.494Z,96197.28
2023-02-22T12:49:17.772Z,96185.03
2023-02-22T12:51:53.548Z,96186.00
2023-02-22T12:54:26.365Z,96192.84
2023-02-22T12:57:00.316Z,96194.94
2023-02-22T12:59:34.432Z,96192.69
2023-02-22T13:02:13.968Z,96189.06
2023-02-22T13:04:42.047Z,96192.16
2023-02-22T13:07:19.685Z,96184.63
2023-02-22T13:10:00.418Z,96192.00
2023-02-22T13:12:39.338Z,96190.03
2023-02-22T13:15:18.994Z,96183.34
2023-02-22T13:17:56.122Z,96186.72
2023-02-22T13:20:29.817Z,96182.53
2023-02-22T13:23:04.080Z,96176.81
2023-02-22T13:25:41.958Z,96182.25
2023-02-22T13:28:22.955Z,96181.41
2023-02-22T13:31:02.061Z,96180.31
2023-02-22T13:33:50.218Z,96179.88
2023-02-22T13:36:37.993Z,96178.06
2023-02-22T13:39:39.138Z,96173.06
2023-02-22T13:42:26.242Z,96177.66
2023-02-22T13:45:24.244Z,96172.94
2023-02-22T13:48:11.267Z,96177.81
2023-02-22T13:50:59.124Z,96176.09
2023-02-22T13:53:32.889Z,96181.28
2023-02-22T13:56:02.040Z,96181.28
2023-02-22T13:58:30.413Z,96176.50
2023-02-22T14:00:59.827Z,96165.66
2023-02-22T14:03:40.555Z,96176.78
2023-02-22T14:06:32.101Z,96170.66
2023-02-22T14:09:08.585Z,96177.66
2023-02-22T14:11:46.080Z,96176.94
2023-02-22T14:14:19.099Z,96180.31
2023-02-22T14:17:27.084Z,96172.63
2023-02-22T14:20:32.484Z,96169.00
2023-02-22T14:23:29.864Z,96179.59
2023-02-22T14:26:11.790Z,96181.38
2023-02-22T14:28:50.348Z,96185.72
2023-02-22T14:31:34.935Z,96180.44
2023-02-22T14:34:07.761Z,96180.72
2023-02-22T14:36:42.060Z,96175.13
2023-02-22T14:39:14.924Z,96175.97
2023-02-22T14:41:49.957Z,96169.84
2023-02-22T14:44:25.333Z,96171.66
2023-02-22T14:46:57.669Z,96173.88
2023-02-22T14:49:31.551Z,96173.03
2023-02-22T14:52:05.757Z,96169.53
2023-02-22T14:54:41.809Z,96172.19
2023-02-22T14:57:21.676Z,96170.09
2023-02-22T15:00:08.137Z,96173.88
2023-02-22T15:02:41.486Z,96173.72
2023-02-22T15:05:14.764Z,96170.38
2023-02-22T15:07:52.531Z,96170.66
2023-02-22T15:10:26.006Z,96171.50
2023-02-22T15:13:10.631Z,96165.66
2023-02-22T15:15:40.876Z,96168.44
2023-02-22T15:18:22.012Z,96169.44
2023-02-22T15:20:56.176Z,96170.56
2023-02-22T15:23:30.197Z,96168.16
2023-02-22T15:25:59.249Z,96173.88
2023-02-22T15:28:31.373Z,96169.44
2023-02-22T15:31:23.490Z,96170.41
2023-02-22T15:33:53.128Z,96167.06
2023-02-22T15:36:22.792Z,96174.47
2023-02-22T15:38:52.670Z,96173.91
2023-02-22T15:41:29.569Z,96174.88
2023-02-22T15:44:22.773Z,96172.38
2023-02-22T15:46:54.461Z,96170.97
2023-02-22T15:49:24.444Z,96169.44
2023-02-22T15:52:05.980Z,96177.78
2023-02-22T15:54:46.568Z,96191.19
2023-02-22T15:57:17.154Z,96184.50
2023-02-22T15:59:49.996Z,96180.19
2023-02-22T16:02:32.651Z,96184.91
2023-02-22T16:05:03.916Z,96182.53
2023-02-22T16:07:32.009Z,96184.50
2023-02-22T16:10:08.073Z,96176.84
2023-02-22T16:12:36.716Z,96181.69
2023-02-22T16:15:16.404Z,96184.63
2023-02-22T16:17:56.062Z,96189.31
2023-02-22T16:20:35.389Z,96191.31
2023-02-22T16:23:23.398Z,96187.94
2023-02-22T16:26:06.848Z,96203.25
2023-02-22T16:28:35.999Z,96189.47
2023-02-22T16:31:05.567Z,96189.88
2023-02-22T16:33:34.445Z,96195.28
2023-02-22T16:36:08.122Z,96197.22
2023-02-22T16:38:38.458Z,96196.69
2023-02-22T16:41:07.759Z,96190.81
2023-02-22T16:43:37.343Z,96200.69
2023-02-22T16:46:07.845Z,96196.50
2023-02-22T16:48:38.217Z,96196.78
2023-02-22T16:51:16.749Z,96196.38
2023-02-22T16:53:44.890Z,96199.84
2023-02-22T16:56:16.731Z,96198.69
2023-02-22T16:58:46.452Z,96206.91
2023-02-22T17:01:15.680Z,96208.13
2023-02-22T17:03:43.636Z,96213.69
2023-02-22T17:06:11.508Z,96215.88
2023-02-22T17:08:39.808Z,96211.56
2023-02-22T17:11:08.914Z,96216.97
2023-02-22T17:13:36.962Z,96220.03
2023-02-22T17:16:05.620Z,96219.47
2023-02-22T17:18:35.701Z,96222.31
2023-02-22T17:21:03.999Z,96228.03
2023-02-22T17:23:31.823Z,96220.63
2023-02-22T17:26:02.165Z,96226.56
2023-02-22T17:28:31.399Z,96234.72
2023-02-22T17:31:01.806Z,96235.97
2023-02-22T17:33:32.877Z,96245.63
2023-02-22T17:36:04.078Z,96245.88
2023-02-22T17:38:34.609Z,96239.56
2023-02-22T17:41:03.437Z,96250.28
2023-02-22T17:43:31.305Z,96255.22
2023-02-22T17:46:00.140Z,96253.06
2023-02-22T17:48:28.104Z,96252.97
2023-02-22T17:50:56.279Z,96256.53
2023-02-22T17:53:26.632Z,96258.34
2023-02-22T17:55:55.719Z,96254.56
2023-02-22T17:58:25.772Z,96253.84
2023-02-22T18:00:59.289Z,96250.25
2023-02-22T18:03:29.067Z,96254.81
2023-02-22T18:05:59.047Z,96251.19
2023-02-22T18:08:31.078Z,96258.28
2023-02-22T18:11:02.059Z,96251.47
2023-02-22T18:13:31.237Z,96257.69
2023-02-22T18:16:00.646Z,96252.81
2023-02-22T18:18:29.043Z,96251.84
2023-02-22T18:20:59.719Z,96253.50
2023-02-22T18:23:31.173Z,96253.38
2023-02-22T18:26:10.681Z,96255.19
2023-02-22T18:28:39.634Z,96252.81
2023-02-22T18:31:08.915Z,96254.59
2023-02-22T18:33:36.879Z,96253.03
2023-02-22T18:36:05.305Z,96246.94
2023-02-22T18:38:34.582Z,96246.22
2023-02-22T18:41:04.674Z,96249.84
2023-02-22T18:43:34.211Z,96249.22
2023-02-22T18:46:10.355Z,96253.69
2023-02-22T18:48:38.930Z,96243.84
2023-02-22T18:51:09.774Z,96246.84
2023-02-22T18:53:40.885Z,96250.22
2023-02-22T18:56:11.119Z,96252.13
2023-02-22T18:58:39.644Z,96251.31
2023-02-22T19:01:08.084Z,96257.78
2023-02-22T19:03:38.138Z,96261.50
2023-02-22T19:06:08.949Z,96257.31
2023-02-22T19:08:39.510Z,96257.19
2023-02-22T19:11:11.398Z,96265.22
2023-02-22T19:13:39.525Z,96257.31
2023-02-22T19:16:09.140Z,96256.47
2023-02-22T19:18:38.204Z,96253.25
2023-02-22T19:21:08.970Z,96262.00
2023-02-22T19:23:38.119Z,96253.34
2023-02-22T19:26:09.416Z,96255.16
2023-02-22T19:28:38.671Z,96254.59
2023-02-22T19:31:18.309Z,96250.00
2023-02-22T19:33:51.162Z,96258.63
2023-02-22T19:36:20.179Z,96250.16
2023-02-22T19:38:48.289Z,96253.63
2023-02-22T19:41:18.362Z,96261.06
2023-02-22T19:43:49.479Z,96258.53
2023-02-22T19:46:17.943Z,96261.31
2023-02-22T19:48:46.532Z,96264.91
2023-02-22T19:51:17.308Z,96261.56
2023-02-22T19:53:46.168Z,96259.75
2023-02-22T19:56:16.738Z,96256.41
2023-02-22T19:58:48.373Z,96257.09
2023-02-22T20:01:22.808Z,96259.06
2023-02-22T20:03:54.122Z,96256.66
2023-02-22T20:06:26.455Z,96256.19
2023-02-22T20:08:55.008Z,96254.75
2023-02-22T20:11:23.882Z,96257.75
2023-02-22T20:13:53.369Z,96261.34
2023-02-22T20:16:21.270Z,96264.09
2023-02-22T20:18:50.079Z,96259.69
2023-02-22T20:21:22.238Z,96261.34
2023-02-22T20:23:50.094Z,96257.16
2023-02-22T20:26:20.023Z,96258.00
2023-02-22T20:28:47.907Z,96255.63
2023-02-22T20:31:18.167Z,96260.75
2023-02-22T20:33:48.126Z,96262.44
2023-02-22T20:36:18.273Z,96258.09
2023-02-22T20:38:46.999Z,96256.81
2023-02-22T20:41:17.360Z,96252.88
2023-02-22T20:43:45.323Z,96259.09
2023-02-22T20:46:13.208Z,96257.28
2023-02-22T20:48:42.551Z,96260.06
2023-02-22T20:51:11.986Z,96267.34
2023-02-22T20:53:41.882Z,96264.97
2023-02-22T20:56:13.278Z,96261.25
2023-02-22T20:58:41.139Z,96262.94
2023-02-22T21:01:12.106Z,96266.75
2023-02-22T21:03:40.745Z,96268.09
2023-02-22T21:06:11.785Z,96262.69
2023-02-22T21:08:40.264Z,96265.16
2023-02-22T21:11:12.054Z,96265.16
2023-02-22T21:13:40.582Z,96272.69
2023-02-22T21:16:10.252Z,96275.81
2023-02-22T21:18:38.508Z,96272.69
2023-02-22T21:21:10.212Z,96273.38
2023-02-22T21:23:40.531Z,96272.56
2023-02-22T21:26:10.863Z,96273.63
2023-02-22T21:28:53.874Z,96273.75
2023-02-22T21:31:24.103Z,96277.69
2023-02-22T21:33:54.195Z,96276.94
2023-02-22T21:36:25.375Z,96278.16
2023-02-22T21:38:56.945Z,96268.56
2023-02-22T21:41:27.698Z,96277.06
2023-02-22T21:43:56.962Z,96274.66
2023-02-22T21:46:29.655Z,96274.88
2023-02-22T21:48:59.152Z,96280.97
2023-02-22T21:51:31.889Z,96275.00
2023-02-22T21:54:03.240Z,96270.09
2023-02-22T21:56:32.986Z,96269.13
2023-02-22T21:59:03.012Z,96265.53
2023-02-22T22:01:33.141Z,96266.72
2023-02-22T22:04:02.092Z,96257.28
2023-02-22T22:06:32.016Z,96262.28
2023-02-22T22:09:01.522Z,96268.34
2023-02-22T22:11:30.770Z,96267.63
2023-02-22T22:13:59.753Z,96263.66
2023-02-22T22:16:29.704Z,96264.09
2023-02-22T22:18:58.268Z,96264.22
2023-02-22T22:21:26.287Z,96261.47
2023-02-22T22:23:56.120Z,96262.53
2023-02-22T22:26:27.325Z,96262.88
2023-02-22T22:28:57.522Z,96258.69
2023-02-22T22:31:27.119Z,96261.94
2023-02-22T22:33:56.166Z,96260.38
2023-02-22T22:36:26.084Z,96256.59
2023-02-22T22:38:57.293Z,96266.03
2023-02-22T22:41:28.873Z,96259.91
2023-02-22T22:43:57.122Z,96257.19
2023-02-22T22:46:25.048Z,96248.31
2023-02-22T22:48:52.951Z,96251.91
2023-02-22T22:51:22.021Z,96250.00
2023-02-22T22:53:51.433Z,96255.03
2023-02-22T22:56:21.577Z,96252.31
2023-02-22T22:58:52.923Z,96256.50
2023-02-22T23:01:27.092Z,96253.13
2023-02-22T23:03:59.277Z,96261.66
2023-02-22T23:06:30.967Z,96260.94
2023-02-22T23:09:00.997Z,96259.13
2023-02-22T23:11:33.582Z,96259.03
2023-02-22T23:14:05.565Z,96252.91
2023-02-22T23:16:33.751Z,96257.00
2023-02-22T23:19:01.707Z,96255.31
2023-02-22T23:21:29.570Z,96254.13
2023-02-22T23:23:58.490Z,96259.38
2023-02-22T23:26:27.533Z,96255.09
2023-02-22T23:28:57.419Z,96254.25
2023-02-22T23:31:28.607Z,96256.06
2023-02-22T23:33:58.790Z,96252.44
2023-02-22T23:36:28.143Z,96258.78
2023-02-22T23:38:56.059Z,96257.22
2023-02-22T23:41:25.178Z,96254.84
2023-02-22T23:43:53.850Z,96258.16
2023-02-22T23:46:21.893Z,96263.22
2023-02-22T23:48:54.543Z,96255.19
2023-02-22T23:51:25.681Z,96261.31
2023-02-22T23:53:55.827Z,96259.38
2023-02-22T23:56:26.498Z,96259.28
2023-02-22T23:58:57.331Z,96261.06
